createdAt,value
2018-07-05T08:35:03.176Z,60.28
2018-07-05T08:36:08.206Z,60.49
2018-07-05T08:37:13.627Z,60.24
2018-07-05T08:38:19.549Z,60.03
2018-07-05T08:39:23.944Z,100.00
2018-07-05T08:40:29.950Z,60.24
2018-07-05T08:41:34.634Z,60.37
2018-07-05T08:42:39.412Z,61.06
2018-07-05T08:43:43.073Z,61.69
2018-07-05T08:44:46.755Z,61.37
2018-07-05T08:47:01.455Z,61.32
2018-07-05T08:48:06.920Z,61.72
2018-07-05T08:49:10.723Z,61.66
2018-07-05T08:50:15.797Z,61.48
2018-07-05T08:51:23.639Z,62.42
2018-07-05T08:52:32.977Z,62.49
2018-07-05T08:53:37.024Z,100.00
2018-07-05T08:54:41.708Z,62.55
2018-07-05T08:55:46.517Z,62.89
2018-07-05T08:56:51.234Z,63.40
2018-07-05T08:57:55.807Z,63.75
2018-07-05T08:59:11.272Z,63.49
2018-07-05T09:01:46.490Z,63.75
2018-07-05T09:02:55.799Z,63.75
2018-07-05T09:04:03.478Z,64.33
2018-07-05T09:05:07.201Z,65.06
2018-07-05T09:06:11.839Z,64.54
2018-07-05T09:07:15.456Z,64.75
2018-07-05T09:08:20.812Z,64.30
2018-07-05T09:09:36.381Z,64.50
2018-07-05T09:10:41.675Z,63.78
2018-07-05T09:11:48.335Z,64.31
2018-07-05T09:12:52.821Z,64.30
2018-07-05T09:13:56.473Z,64.82
2018-07-05T09:15:01.159Z,64.81
2018-07-05T09:16:07.179Z,64.32
2018-07-05T09:17:11.450Z,64.88
2018-07-05T09:18:15.201Z,64.57
2018-07-05T09:19:18.845Z,65.09
2018-07-05T09:20:25.832Z,65.58
2018-07-05T09:21:35.401Z,64.95
2018-07-05T09:22:42.738Z,64.77
2018-07-05T09:23:46.440Z,64.39
2018-07-05T09:24:51.374Z,64.36
2018-07-05T09:25:55.021Z,65.42
2018-07-05T09:26:58.768Z,65.45
2018-07-05T09:28:07.784Z,64.85
2018-07-05T09:29:12.096Z,64.31
2018-07-05T09:30:16.722Z,64.03
2018-07-05T09:31:20.388Z,63.27
2018-07-05T09:32:26.750Z,62.75
2018-07-05T09:33:30.762Z,62.83
2018-07-05T09:34:35.311Z,63.26
2018-07-05T09:35:41.061Z,63.39
2018-07-05T09:36:47.527Z,62.89
2018-07-05T09:37:53.101Z,62.52
2018-07-05T09:38:57.539Z,62.44
2018-07-05T09:45:32.637Z,62.00
2018-07-05T09:46:39.307Z,62.73
2018-07-05T09:47:44.010Z,62.47
2018-07-05T09:50:01.170Z,62.90
2018-07-05T09:51:05.530Z,62.60
2018-07-05T09:52:09.474Z,62.72
2018-07-05T09:53:14.732Z,62.03
2018-07-05T09:54:19.258Z,62.23
2018-07-05T09:55:24.271Z,62.03
2018-07-05T09:56:29.601Z,61.59
2018-07-05T09:57:34.536Z,61.64
2018-07-05T09:58:40.807Z,61.91
2018-07-05T09:59:46.314Z,62.06
2018-07-05T10:00:52.547Z,62.11
2018-07-05T10:01:57.326Z,62.53
2018-07-05T10:04:12.584Z,62.35
2018-07-05T10:05:18.332Z,62.07
2018-07-05T10:06:22.274Z,62.39
2018-07-05T10:07:27.271Z,61.73
2018-07-05T10:08:31.621Z,61.31
2018-07-05T10:09:36.460Z,61.54
2018-07-05T10:10:41.873Z,61.30
2018-07-05T10:11:52.285Z,61.38
2018-07-05T10:14:16.599Z,60.90
2018-07-05T10:15:20.508Z,60.39
2018-07-05T10:16:25.253Z,61.55
2018-07-05T10:17:29.607Z,62.16
2018-07-05T10:18:36.249Z,61.98
2018-07-05T10:19:45.697Z,62.04
2018-07-05T10:20:50.346Z,61.46
2018-07-05T10:21:56.912Z,61.75
2018-07-05T10:23:02.732Z,61.58
2018-07-05T10:24:08.111Z,61.40
2018-07-05T10:25:13.375Z,61.79
2018-07-05T10:26:19.411Z,61.68
2018-07-05T10:27:23.831Z,62.09
2018-07-05T10:28:28.689Z,61.36
2018-07-05T10:29:47.140Z,61.89
2018-07-05T10:32:19.976Z,61.18
2018-07-05T10:33:29.778Z,61.41
2018-07-05T10:34:36.358Z,61.37
2018-07-05T10:35:41.399Z,61.02
2018-07-05T10:36:50.366Z,60.94
2018-07-05T10:37:59.695Z,60.86
2018-07-05T10:39:03.842Z,60.85
2018-07-05T10:40:15.966Z,61.56
2018-07-05T10:41:27.332Z,61.39
2018-07-05T10:42:40.406Z,61.70
2018-07-05T10:43:51.470Z,61.29
2018-07-05T10:45:01.348Z,61.44
2018-07-05T10:46:11.415Z,61.83
2018-07-05T10:47:22.515Z,61.39
2018-07-05T10:48:33.334Z,62.21
2018-07-05T10:49:45.212Z,61.55
2018-07-05T10:50:55.021Z,61.20
2018-07-05T10:53:22.406Z,60.31
2018-07-05T10:54:33.297Z,59.85
2018-07-05T10:55:44.158Z,59.94
2018-07-05T10:56:56.911Z,60.14
2018-07-05T10:58:07.554Z,60.01
2018-07-05T10:59:21.750Z,60.12
2018-07-05T11:02:03.558Z,60.33
2018-07-05T11:03:15.470Z,59.92
2018-07-05T11:04:25.096Z,60.70
2018-07-05T11:05:37.470Z,60.46
2018-07-05T11:06:49.671Z,60.47
2018-07-05T11:08:01.488Z,60.75
2018-07-05T11:09:11.503Z,60.34
2018-07-05T11:10:23.622Z,59.50
2018-07-05T11:11:35.362Z,59.43
2018-07-05T11:12:50.147Z,58.94
2018-07-05T11:14:00.306Z,58.93
2018-07-05T11:15:10.624Z,58.81
2018-07-05T11:16:21.598Z,58.49
2018-07-05T11:17:32.305Z,58.66
2018-07-05T11:18:42.248Z,100.00
2018-07-05T11:19:53.552Z,58.25
2018-07-05T11:21:05.173Z,58.45
2018-07-05T11:22:19.551Z,58.07
2018-07-05T11:23:31.422Z,57.88
2018-07-05T11:24:43.543Z,57.67
2018-07-05T23:12:45.315Z,94.09
2018-07-05T23:13:57.023Z,94.05
2018-07-05T23:15:07.226Z,94.29
2018-07-05T23:16:17.373Z,93.79
2018-07-05T23:17:28.929Z,94.13
2018-07-05T23:18:38.721Z,93.53
2018-07-05T23:19:48.510Z,94.05
2018-07-05T23:21:09.611Z,93.69
2018-07-05T23:22:35.352Z,93.76
2018-07-05T23:27:04.378Z,93.80
2018-07-05T23:28:16.226Z,93.66
2018-07-05T23:29:26.270Z,93.06
2018-07-05T23:30:36.210Z,93.30
2018-07-05T23:31:46.025Z,93.79
2018-07-05T23:33:03.662Z,92.96
2018-07-05T23:34:22.646Z,93.40
2018-07-05T23:35:48.765Z,93.08
2018-07-05T23:58:58.220Z,92.03
